PAKTPAJN

Guest
Details From PAKT - KETCHIKAN INTL
To PAJN - Juneau Intl
Flight Number -
Tags generated
Created
Modified
Stats Distance 205 nm / 379 km
Max Altitude 22,600 ft / 6,888 m
Waypoints 3
Social Downloads 4
Likes 0
Share VATSIM

Download

Looking for another format? Having issues loading an existing format? Contact us
Advertisement - Login to hide

Notes

Basic altitude profile: - Ascent Rate: 2500ft/min - Ascent Speed: 250kts - Cruise Altitude: 35000ft - Cruise Speed: 420kts - Descent Rate: 1500ft/min - Descent Speed: 250kts Options: - Use NATs: yes - Use PACOTS: yes - Use low airways: yes - Use high airways: yes

Route

PAKT TURKS PAJN

ID Type Via Altitude Latitude Longitude Leg Dist Tot Dist Heading (true) Name
O PAKT APT - 0 ft / 0 m 55.35554˚ -131.71374˚ - 0 nm - KETCHIKAN INTL
TURKS FIX - 22,600 ft / 6,888 m 56.71661˚ -133.38462˚ 99 nm 99 nm 326° / 325° -
O PAJN APT - 0 ft / 0 m 58.35496˚ -134.57628˚ 105 nm 204 nm 339° / 338° Juneau Intl

Altitude Profile

Advertisement - Login to hide

Weather


0- 5 10 15 20 25 30 35+ Temperature / ° C

Clouds and Precipitation
Forecast for 2017-12-12 06:00 UTC. Updated 2 hours ago

Ground ~20,000 ft ~40,000 ft Winds

PAKT

Details ICAO PAKT (KTN)
Name KETCHIKAN INTL
Region USA (Alaska)
Timezone Unknown (UTC+0.0)
Stats Elevation 88 ft / 27 m (AMSL)
Location 55.355545° -131.713737°
Runways 1
Magnetic Variation 18.535° E

METAR

PAKT 120553Z 14012KT 10SM BKN028 OVC035 11/03 A3002

Decode

TAF

PAKT 120541Z 1206/1306 14012KT P6SM BKN150 WS020/15045KT FM121000 14015KT P6SM -RA BKN050 OVC080 WS020/16040KT FM121600 16010KT 6SM -RA BR BKN025 OVC035 AMD LTD TO CLD VIS AND WIND 1206/1215

Decode

Departure Runways

ID Width Length Bearing (true) Bearing (mag) Surface Threshold Offset Overrun Length
11 150 ft / 46 m 7,485 ft / 2,281 m 135.66° 117.12° Asphalt 0 ft / 0 m 200 ft / 61 m
29 150 ft / 46 m 7,485 ft / 2,281 m 315.68° 297.14° Asphalt 0 ft / 0 m 100 ft / 30 m

PAJN

Details ICAO PAJN (JNU)
Name Juneau Intl
Region USA (Alaska)
Timezone America/Juneau (UTC-9.0)
Stats Elevation 21 ft / 6 m (AMSL)
Location 58.354964° -134.576278°
Runways 1
Magnetic Variation 19.150° E

METAR

PAJN 120553Z 24004KT 10SM SCT003 BKN060 OVC085 05/05 A2992

Decode

TAF

PAJN 120641Z 1207/1306 VRB05KT P6SM VCSH SCT003 BKN060 TEMPO 1207/1211 4SM BR BKN003 FM121300 13012KT 5SM -RA BR BKN025 OVC035 FM122000 10007KT P6SM VCSH BKN040 OVC060

Decode

Destination Runways

ID Width Length Bearing (true) Bearing (mag) Surface Threshold Offset Overrun Length
08 150 ft / 46 m 8,430 ft / 2,570 m 104.87° 85.72° Asphalt 0 ft / 0 m 450 ft / 137 m
26 150 ft / 46 m 8,430 ft / 2,570 m 284.90° 265.75° Asphalt 0 ft / 0 m 225 ft / 69 m

Approach Navaids

Runway Type Ident Frequency Range Bearing (true) Bearing (mag) Slope Elevation
08 Localiser IJDL 109.90 MHz 18 nm / 33 km 84.92° 65.77° - 21 ft / 6 m (AMSL)
08 DME IJDL 109.90 MHz 18 nm / 33 km - - - 175 ft / 53 m (AMSL)

Popular Alternatives